createdAt,value
2018-06-27T00:00:26.926Z,83.59
2018-06-27T00:01:26.913Z,83.62
2018-06-27T00:02:26.901Z,83.42
2018-06-27T00:03:26.897Z,84.13
2018-06-27T00:04:26.946Z,83.83
2018-06-27T00:05:26.871Z,83.62
2018-06-27T00:06:26.866Z,83.93
2018-06-27T00:07:26.844Z,83.62
2018-06-27T00:08:26.840Z,83.83
2018-06-27T00:09:26.889Z,83.73
2018-06-27T00:10:26.826Z,83.53
2018-06-27T00:11:26.810Z,83.73
2018-06-27T00:12:26.793Z,83.73
2018-06-27T00:13:26.781Z,83.67
2018-06-27T00:14:26.841Z,84.07
2018-06-27T00:15:26.762Z,83.97
2018-06-27T00:16:26.744Z,84.17
2018-06-27T00:17:26.737Z,84.07
2018-06-27T00:18:26.729Z,83.97
2018-06-27T00:19:26.883Z,84.28
2018-06-27T00:20:26.711Z,84.42
2018-06-27T00:21:26.703Z,84.38
2018-06-27T00:22:26.685Z,84.07
2018-06-27T00:23:26.670Z,84.52
2018-06-27T00:24:26.664Z,83.97
2018-06-27T00:25:26.717Z,84.38
2018-06-27T00:26:26.641Z,84.38
2018-06-27T00:27:26.633Z,84.17
2018-06-27T00:28:26.621Z,84.58
2018-06-27T00:29:26.608Z,84.72
2018-06-27T00:30:26.660Z,84.72
2018-06-27T00:31:26.584Z,84.31
2018-06-27T00:32:26.572Z,84.38
2018-06-27T00:33:26.563Z,84.42
2018-06-27T00:34:26.561Z,84.01
2018-06-27T00:35:26.608Z,84.72
2018-06-27T00:36:26.528Z,85.84
2018-06-27T00:37:26.521Z,85.47
2018-06-27T00:38:26.508Z,85.53
2018-06-27T00:39:26.496Z,85.33
2018-06-27T00:40:26.557Z,85.64
2018-06-27T00:41:26.473Z,84.82
2018-06-27T00:42:26.467Z,85.13
2018-06-27T00:43:26.451Z,85.23
2018-06-27T00:44:26.441Z,85.23
2018-06-27T00:45:26.492Z,85.37
2018-06-27T00:46:26.418Z,85.53
2018-06-27T00:47:26.409Z,85.23
2018-06-27T00:48:26.398Z,85.27
2018-06-27T00:49:26.385Z,85.53
2018-06-27T00:50:26.439Z,85.64
2018-06-27T00:51:26.383Z,85.53
2018-06-27T00:52:26.352Z,85.43
2018-06-27T00:53:26.344Z,85.37
2018-06-27T00:54:26.332Z,85.37
2018-06-27T00:55:26.381Z,85.68
2018-06-27T00:56:26.314Z,85.84
2018-06-27T00:57:26.304Z,85.47
2018-06-27T00:58:26.289Z,86.04
2018-06-27T00:59:26.279Z,85.47
2018-06-27T01:00:26.343Z,85.27
2018-06-27T01:01:26.257Z,85.98
2018-06-27T01:02:26.243Z,85.58
2018-06-27T01:03:26.237Z,85.37
2018-06-27T01:04:26.220Z,86.19
2018-06-27T01:05:26.272Z,85.78
2018-06-27T01:06:26.204Z,86.49
2018-06-27T01:07:26.193Z,86.39
2018-06-27T01:08:26.181Z,86.49
2018-06-27T01:09:26.168Z,87.35
2018-06-27T01:10:26.227Z,88.16
2018-06-27T01:11:26.148Z,87.55
2018-06-27T01:12:26.137Z,87.45
2018-06-27T01:13:26.126Z,87.90
2018-06-27T01:14:26.115Z,88.51
2018-06-27T01:15:26.169Z,88.40
2018-06-27T01:16:26.098Z,88.71
2018-06-27T01:17:26.081Z,88.81
2018-06-27T01:18:26.072Z,88.81
2018-06-27T01:19:26.063Z,88.71
2018-06-27T01:20:26.136Z,88.10
2018-06-27T01:21:26.036Z,89.16
2018-06-27T01:22:26.031Z,89.26
2018-06-27T01:23:26.023Z,89.36
2018-06-27T01:24:26.004Z,89.47
2018-06-27T01:25:26.065Z,88.55
2018-06-27T01:26:25.984Z,88.96
2018-06-27T01:27:25.971Z,88.75
2018-06-27T01:28:25.962Z,89.77
2018-06-27T01:29:25.956Z,89.47
2018-06-27T01:30:26.003Z,89.47
2018-06-27T01:31:25.925Z,88.75
2018-06-27T01:32:25.914Z,89.36
2018-06-27T01:33:25.906Z,89.47
2018-06-27T01:34:25.895Z,89.36
2018-06-27T01:35:25.948Z,88.65
2018-06-27T01:36:25.873Z,89.36
2018-06-27T01:37:25.865Z,88.96
2018-06-27T01:38:25.850Z,88.85
2018-06-27T01:39:25.845Z,89.61
2018-06-27T01:40:25.898Z,89.36
2018-06-27T01:41:25.818Z,88.08
2018-06-27T01:42:25.812Z,89.61
2018-06-27T01:43:25.800Z,90.32
2018-06-27T01:44:25.791Z,89.92
2018-06-27T01:45:25.843Z,90.12
2018-06-27T01:46:25.767Z,90.53
2018-06-27T01:47:25.802Z,89.87
2018-06-27T01:48:25.747Z,89.57
2018-06-27T01:49:25.736Z,89.47
2018-06-27T01:50:25.799Z,89.36
2018-06-27T01:51:25.710Z,89.36
2018-06-27T01:52:25.702Z,89.06
2018-06-27T01:53:25.688Z,88.85
2018-06-27T01:54:25.679Z,87.12
2018-06-27T01:55:25.732Z,86.51
2018-06-27T01:56:25.656Z,86.51
2018-06-27T01:57:25.644Z,88.04
2018-06-27T01:58:25.634Z,88.55
2018-06-27T01:59:25.624Z,88.96
2018-06-27T02:00:25.679Z,89.06
2018-06-27T02:01:25.601Z,89.06
2018-06-27T02:02:25.593Z,89.06
2018-06-27T02:03:25.585Z,88.04
2018-06-27T02:04:25.571Z,87.84
2018-06-27T02:05:25.635Z,88.55
2018-06-27T02:06:25.548Z,88.34
2018-06-27T02:07:25.536Z,88.45
2018-06-27T02:08:25.530Z,87.73
2018-06-27T02:09:25.522Z,87.63
2018-06-27T02:10:25.510Z,88.34
2018-06-27T02:11:25.569Z,89.16
2018-06-27T02:12:25.485Z,89.36
2018-06-27T02:13:25.495Z,89.16
2018-06-27T02:14:25.480Z,89.10
2018-06-27T02:15:25.458Z,88.55
2018-06-27T02:16:25.503Z,89.16
2018-06-27T02:17:25.429Z,89.16
2018-06-27T02:18:25.415Z,88.55
2018-06-27T02:19:25.409Z,87.84
2018-06-27T02:20:25.397Z,88.75
2018-06-27T02:21:25.444Z,88.24
2018-06-27T02:22:25.376Z,88.75
2018-06-27T02:23:25.363Z,88.75
2018-06-27T02:24:25.351Z,89.06
2018-06-27T02:25:25.344Z,88.24
2018-06-27T02:26:25.395Z,89.26
2018-06-27T02:27:25.388Z,88.85
2018-06-27T02:28:25.312Z,89.06
2018-06-27T02:29:25.298Z,88.96
2018-06-27T02:30:25.288Z,88.85
2018-06-27T02:31:25.345Z,88.45
2018-06-27T02:32:25.267Z,89.06
2018-06-27T02:33:25.261Z,88.85
2018-06-27T02:34:25.243Z,89.51
2018-06-27T02:35:25.236Z,88.69
2018-06-27T02:36:25.292Z,88.59
2018-06-27T02:37:25.212Z,89.20
2018-06-27T02:38:25.204Z,89.10
2018-06-27T02:39:25.200Z,89.34
2018-06-27T02:40:25.188Z,89.92
2018-06-27T02:41:25.231Z,88.63
2018-06-27T02:42:25.161Z,88.39
2018-06-27T02:43:25.149Z,89.40
2018-06-27T02:44:25.149Z,89.81
2018-06-27T02:45:25.126Z,90.47
2018-06-27T02:46:25.171Z,90.47
2018-06-27T02:47:25.105Z,89.65
2018-06-27T02:48:25.093Z,89.34
2018-06-27T02:49:25.081Z,89.04
2018-06-27T02:50:25.079Z,88.43
2018-06-27T02:51:25.124Z,89.34
2018-06-27T02:52:25.053Z,89.45
2018-06-27T02:53:25.042Z,89.96
2018-06-27T02:54:25.032Z,89.45
2018-06-27T02:55:25.020Z,89.75
2018-06-27T02:56:25.080Z,89.04
2018-06-27T02:57:24.997Z,89.34
2018-06-27T02:58:24.987Z,89.04
2018-06-27T02:59:24.977Z,89.34
2018-06-27T03:00:24.976Z,88.93
2018-06-27T03:01:25.022Z,89.04
2018-06-27T03:02:24.961Z,89.25
2018-06-27T03:03:24.929Z,89.45
2018-06-27T03:04:24.928Z,89.34
2018-06-27T03:05:24.911Z,89.14
2018-06-27T03:06:24.961Z,89.04
2018-06-27T03:07:24.906Z,88.84
2018-06-27T03:08:24.880Z,89.25
2018-06-27T03:09:24.855Z,89.04
2018-06-27T03:10:24.854Z,89.04
2018-06-27T03:11:24.919Z,88.22
2018-06-27T03:12:24.833Z,88.53
2018-06-27T03:13:24.829Z,89.45
2018-06-27T03:14:24.811Z,89.25
2018-06-27T03:15:24.804Z,88.53
2018-06-27T03:16:24.864Z,89.34
2018-06-27T03:17:24.782Z,89.45
2018-06-27T03:18:24.772Z,89.55
2018-06-27T03:19:24.764Z,90.36
2018-06-27T03:20:24.792Z,90.36
2018-06-27T03:21:24.807Z,90.36
2018-06-27T03:22:24.724Z,89.55
2018-06-27T03:23:24.717Z,90.67
2018-06-27T03:24:24.702Z,90.00
2018-06-27T03:25:24.693Z,89.79
2018-06-27T03:26:24.744Z,90.20
2018-06-27T03:27:24.671Z,90.71
2018-06-27T03:28:24.661Z,90.57
2018-06-27T03:29:24.649Z,90.51
2018-06-27T03:30:24.639Z,90.26
2018-06-27T03:31:24.695Z,89.79
2018-06-27T03:32:24.618Z,90.47
2018-06-27T03:33:24.619Z,90.26
2018-06-27T03:34:24.597Z,89.55
2018-06-27T03:35:24.585Z,88.84
2018-06-27T03:36:24.647Z,88.43
2018-06-27T03:37:24.564Z,89.34
2018-06-27T03:38:24.555Z,88.93
2018-06-27T03:39:24.547Z,89.34
2018-06-27T03:40:24.532Z,89.45
2018-06-27T03:41:24.590Z,89.45
2018-06-27T03:42:24.512Z,89.25
2018-06-27T03:43:24.497Z,89.45
2018-06-27T03:44:24.491Z,89.25
2018-06-27T03:45:24.479Z,89.55
2018-06-27T03:46:24.541Z,89.34
2018-06-27T03:47:24.466Z,89.14
2018-06-27T03:48:24.443Z,88.32
2018-06-27T03:49:24.437Z,88.53
2018-06-27T03:50:24.424Z,89.25
2018-06-27T03:51:24.417Z,89.25
2018-06-27T03:52:27.590Z,90.00
2018-06-27T03:53:24.393Z,89.34
2018-06-27T03:54:24.389Z,89.45
2018-06-27T03:55:24.379Z,89.96
2018-06-27T03:56:24.358Z,89.86
2018-06-27T03:57:24.420Z,89.55
2018-06-27T03:58:24.337Z,89.25
2018-06-27T03:59:24.329Z,89.75
2018-06-27T04:00:24.314Z,89.96
2018-06-27T04:01:24.305Z,89.75
2018-06-27T04:02:24.371Z,89.34
2018-06-27T04:03:24.274Z,88.93
2018-06-27T04:04:24.268Z,89.55
2018-06-27T04:05:24.255Z,89.65
2018-06-27T04:06:24.251Z,89.45
2018-06-27T04:07:24.305Z,89.55
2018-06-27T04:08:24.229Z,89.45
2018-06-27T04:09:24.217Z,89.45
2018-06-27T04:10:24.206Z,89.75
2018-06-27T04:11:24.194Z,89.45
2018-06-27T04:12:24.250Z,89.25
2018-06-27T04:13:24.301Z,89.45
2018-06-27T04:14:24.174Z,89.45
2018-06-27T04:15:24.158Z,89.14
2018-06-27T04:16:24.140Z,89.04
2018-06-27T04:17:24.196Z,88.49
2018-06-27T04:18:24.118Z,88.84
2018-06-27T04:19:24.114Z,89.04
2018-06-27T04:20:24.106Z,89.14
2018-06-27T04:21:24.095Z,89.20
2018-06-27T04:22:24.124Z,88.08
2018-06-27T04:23:24.069Z,88.93
2018-06-27T04:24:24.053Z,88.59
2018-06-27T04:25:24.045Z,88.79
2018-06-27T04:26:24.036Z,88.79
2018-06-27T04:27:24.089Z,88.49
2018-06-27T04:28:24.017Z,88.59
2018-06-27T04:29:24.032Z,88.90
2018-06-27T04:30:23.992Z,88.69
2018-06-27T04:31:23.986Z,87.98
2018-06-27T04:32:24.041Z,88.14
2018-06-27T04:33:23.959Z,88.24
2018-06-27T04:34:23.949Z,87.94
2018-06-27T04:35:23.932Z,87.08
2018-06-27T04:36:23.923Z,86.98
2018-06-27T04:37:23.977Z,86.47
2018-06-27T04:38:23.905Z,86.57
2018-06-27T04:39:23.882Z,86.68
2018-06-27T04:40:23.882Z,86.77
2018-06-27T04:41:23.885Z,86.57
2018-06-27T04:42:23.919Z,86.37
2018-06-27T04:43:23.852Z,85.55
2018-06-27T04:44:23.837Z,86.16
2018-06-27T04:45:23.825Z,86.02
2018-06-27T04:46:23.815Z,85.72
2018-06-27T04:47:23.869Z,86.13
2018-06-27T04:48:23.789Z,85.27
2018-06-27T04:49:23.840Z,84.76
2018-06-27T04:50:23.773Z,84.21
2018-06-27T04:51:23.763Z,84.25
2018-06-27T04:52:23.813Z,84.45
2018-06-27T04:53:23.739Z,84.31
2018-06-27T04:54:23.723Z,84.11
2018-06-27T04:55:23.720Z,84.11
2018-06-27T04:56:23.702Z,84.21
2018-06-27T04:57:23.762Z,83.81
2018-06-27T04:58:23.686Z,84.05
2018-06-27T04:59:23.673Z,84.01
2018-06-27T05:00:23.661Z,83.70
2018-06-27T05:01:23.659Z,83.70
2018-06-27T05:02:23.704Z,83.50
2018-06-27T05:03:23.635Z,83.50
2018-06-27T05:04:23.621Z,83.70
2018-06-27T05:05:23.607Z,83.50
2018-06-27T05:06:23.598Z,83.81
2018-06-27T05:07:23.689Z,83.91
2018-06-27T05:08:23.580Z,83.40
2018-06-27T05:09:23.567Z,84.01
2018-06-27T05:10:23.549Z,83.40
2018-06-27T05:11:23.544Z,84.21
2018-06-27T05:12:23.602Z,84.31
2018-06-27T05:13:23.518Z,84.31
2018-06-27T05:14:23.510Z,84.82
2018-06-27T05:15:23.498Z,84.82
2018-06-27T05:16:23.489Z,84.72
2018-06-27T05:17:23.553Z,84.88
2018-06-27T05:18:23.475Z,85.74
2018-06-27T05:19:23.450Z,84.07
2018-06-27T05:20:23.438Z,84.28
2018-06-27T05:21:23.436Z,84.07
2018-06-27T05:22:23.418Z,84.28
2018-06-27T05:23:23.481Z,85.29
2018-06-27T05:24:23.402Z,85.60
2018-06-27T05:25:23.383Z,84.95
2018-06-27T05:26:23.372Z,83.62
2018-06-27T05:27:23.444Z,83.59
2018-06-27T05:28:23.422Z,83.79
2018-06-27T05:29:23.352Z,83.18
2018-06-27T05:30:23.329Z,82.43
2018-06-27T05:31:23.319Z,82.84
2018-06-27T05:32:23.310Z,81.68
2018-06-27T05:33:23.369Z,82.12
2018-06-27T05:34:23.292Z,81.82
2018-06-27T05:35:23.282Z,82.33
2018-06-27T05:36:23.262Z,82.33
2018-06-27T05:37:23.257Z,82.57
2018-06-27T05:38:23.307Z,83.54
2018-06-27T05:39:23.230Z,83.95
2018-06-27T05:40:23.226Z,83.65
2018-06-27T05:41:23.211Z,82.64
2018-06-27T05:42:23.201Z,82.98
2018-06-27T05:43:23.262Z,83.14
2018-06-27T05:44:23.288Z,83.04
2018-06-27T05:45:23.167Z,82.84
2018-06-27T05:46:23.156Z,82.33
2018-06-27T05:47:23.145Z,82.23
2018-06-27T05:48:23.212Z,83.00
2018-06-27T05:49:23.114Z,82.80
2018-06-27T05:50:23.112Z,82.05
2018-06-27T05:51:23.101Z,81.44
2018-06-27T05:52:23.089Z,81.13
2018-06-27T05:53:23.141Z,81.04
2018-06-27T05:54:23.071Z,81.34
2018-06-27T05:55:23.070Z,80.90
2018-06-27T05:56:23.055Z,80.90
2018-06-27T05:57:23.037Z,80.19
2018-06-27T05:58:23.236Z,80.19
2018-06-27T05:59:23.013Z,80.79
2018-06-27T06:00:23.008Z,80.79
2018-06-27T06:01:22.998Z,80.59
2018-06-27T06:02:22.982Z,80.99
2018-06-27T06:03:23.043Z,81.71
2018-06-27T06:04:23.018Z,80.86
2018-06-27T06:05:22.950Z,80.86
2018-06-27T06:06:22.944Z,79.60
2018-06-27T06:07:22.931Z,79.20
2018-06-27T06:08:23.005Z,78.79
2018-06-27T06:09:22.907Z,79.60
2018-06-27T06:10:22.893Z,79.50
2018-06-27T06:11:22.907Z,79.30
2018-06-27T06:12:22.874Z,79.20
2018-06-27T06:13:22.870Z,78.66
2018-06-27T06:14:22.923Z,78.75
2018-06-27T06:15:22.840Z,78.05
2018-06-27T06:16:22.832Z,78.05
2018-06-27T06:17:22.818Z,79.10
2018-06-27T06:18:22.813Z,78.89
2018-06-27T06:19:22.858Z,79.20
2018-06-27T06:20:22.790Z,79.20
2018-06-27T06:21:22.778Z,79.20
2018-06-27T06:22:22.767Z,79.60
2018-06-27T06:23:22.758Z,79.30
2018-06-27T06:24:22.809Z,78.66
2018-06-27T06:25:22.770Z,77.75
2018-06-27T06:26:22.724Z,78.52
2018-06-27T06:27:22.716Z,77.47
2018-06-27T06:28:22.709Z,76.86
2018-06-27T06:29:22.755Z,75.51
2018-06-27T06:30:22.680Z,77.53
2018-06-27T06:31:22.667Z,75.88
2018-06-27T06:32:22.681Z,75.44
2018-06-27T06:33:22.653Z,75.04
2018-06-27T06:34:22.701Z,74.43
2018-06-27T06:35:22.624Z,73.99
2018-06-27T06:36:22.614Z,74.09
2018-06-27T06:37:22.609Z,74.16
2018-06-27T06:38:22.589Z,73.35
2018-06-27T06:39:22.635Z,73.45
2018-06-27T06:40:22.567Z,71.84
2018-06-27T06:41:22.559Z,72.04
2018-06-27T06:42:22.550Z,71.84
2018-06-27T06:43:22.538Z,72.34
2018-06-27T06:44:22.583Z,72.54
2018-06-27T06:45:22.522Z,72.54
2018-06-27T06:46:22.503Z,73.25
2018-06-27T06:47:22.496Z,73.05
2018-06-27T06:48:22.492Z,73.25
2018-06-27T06:49:22.541Z,74.26
2018-06-27T06:50:22.468Z,74.05
2018-06-27T06:51:22.452Z,73.49
2018-06-27T06:52:22.442Z,73.79
2018-06-27T06:53:22.432Z,73.35
2018-06-27T06:54:22.483Z,73.35
2018-06-27T06:55:22.407Z,73.55
2018-06-27T06:56:22.399Z,73.15
2018-06-27T06:57:22.393Z,73.75
2018-06-27T06:58:22.383Z,73.15
2018-06-27T06:59:22.425Z,73.55
2018-06-27T07:00:22.353Z,74.05
2018-06-27T07:01:22.342Z,73.75
2018-06-27T07:02:22.346Z,73.45
2018-06-27T07:03:22.323Z,73.55
2018-06-27T07:04:22.383Z,73.85
2018-06-27T07:05:22.299Z,73.35
2018-06-27T07:06:22.291Z,73.92
2018-06-27T07:07:22.276Z,73.82
2018-06-27T07:08:22.272Z,72.98
2018-06-27T07:09:22.330Z,71.94
2018-06-27T07:10:22.256Z,70.70
2018-06-27T07:11:22.296Z,69.85
2018-06-27T07:12:22.225Z,69.25
2018-06-27T07:13:22.218Z,69.69
2018-06-27T07:14:22.274Z,70.16
2018-06-27T07:15:22.196Z,70.19
2018-06-27T07:16:22.224Z,70.12
2018-06-27T07:17:22.169Z,70.32
2018-06-27T07:18:22.154Z,71.06
2018-06-27T07:19:22.218Z,71.50
2018-06-27T07:20:22.143Z,72.17
2018-06-27T07:21:22.135Z,71.37
2018-06-27T07:22:22.116Z,71.77
2018-06-27T07:23:22.104Z,71.23
2018-06-27T07:24:22.154Z,70.50
2018-06-27T07:25:22.088Z,70.79
2018-06-27T07:26:22.075Z,69.99
2018-06-27T07:27:22.065Z,70.39
2018-06-27T07:28:22.064Z,70.79
2018-06-27T07:29:22.107Z,70.22
2018-06-27T07:30:22.037Z,70.32
2018-06-27T07:31:22.014Z,69.72
2018-06-27T07:32:22.006Z,70.39
2018-06-27T07:33:22.001Z,69.89
2018-06-27T07:34:22.055Z,69.69
2018-06-27T07:35:21.969Z,69.89
2018-06-27T07:36:21.966Z,70.19
2018-06-27T07:37:21.949Z,70.26
2018-06-27T07:38:21.946Z,69.56
2018-06-27T07:39:21.995Z,68.62
2018-06-27T07:40:21.919Z,68.82
2018-06-27T07:41:21.903Z,69.59
2018-06-27T07:42:21.895Z,69.79
2018-06-27T07:43:21.884Z,66.67
2018-06-27T07:44:22.011Z,66.03
2018-06-27T07:45:21.868Z,66.03
2018-06-27T07:46:21.852Z,66.67
2018-06-27T07:47:21.848Z,66.97
2018-06-27T07:48:21.831Z,68.38
2018-06-27T07:49:21.821Z,67.24
2018-06-27T07:50:21.893Z,67.07
2018-06-27T07:51:21.807Z,67.27
2018-06-27T07:52:21.789Z,66.47
2018-06-27T07:53:21.773Z,67.38
2018-06-27T07:54:21.771Z,68.48
2018-06-27T07:55:21.821Z,67.85
2018-06-27T07:56:21.755Z,67.85
2018-06-27T07:57:21.733Z,67.35
2018-06-27T07:58:21.725Z,66.74
2018-06-27T07:59:21.725Z,66.03
2018-06-27T08:00:21.764Z,66.84
2018-06-27T08:01:21.696Z,66.64
2018-06-27T08:02:21.679Z,65.73
2018-06-27T08:03:21.667Z,66.54
2018-06-27T08:04:21.663Z,66.44
2018-06-27T08:05:21.710Z,66.31
2018-06-27T08:06:21.634Z,67.71
2018-06-27T08:07:21.624Z,66.88
2018-06-27T08:08:21.619Z,64.67
2018-06-27T08:09:21.606Z,65.57
2018-06-27T08:10:21.661Z,64.47
2018-06-27T08:11:21.583Z,64.97
2018-06-27T08:12:21.656Z,64.74
2018-06-27T08:13:21.562Z,64.64
2018-06-27T08:14:21.540Z,63.84
2018-06-27T08:15:21.601Z,64.40
2018-06-27T08:16:21.523Z,64.71
2018-06-27T08:17:21.516Z,65.01
2018-06-27T08:18:21.509Z,64.11
2018-06-27T08:19:21.504Z,64.51
2018-06-27T08:20:21.542Z,63.81
2018-06-27T08:21:21.471Z,63.60
2018-06-27T08:22:21.464Z,64.14
2018-06-27T08:23:21.454Z,65.14
2018-06-27T08:24:21.442Z,64.91
2018-06-27T08:25:21.502Z,64.51
2018-06-27T08:26:21.521Z,62.10
2018-06-27T08:27:21.407Z,63.00
2018-06-27T08:28:21.398Z,63.07
2018-06-27T08:29:21.386Z,61.57
2018-06-27T08:30:21.453Z,62.27
2018-06-27T08:31:21.362Z,61.17
2018-06-27T08:32:21.352Z,62.44
2018-06-27T08:33:21.346Z,62.34
2018-06-27T08:34:21.329Z,61.14
2018-06-27T08:35:21.385Z,61.14
2018-06-27T08:36:21.326Z,61.64
2018-06-27T08:37:21.294Z,62.44
2018-06-27T08:38:21.287Z,61.74
2018-06-27T08:39:21.274Z,61.01
2018-06-27T08:40:21.328Z,63.84
2018-06-27T08:41:21.252Z,64.04
2018-06-27T08:42:21.244Z,63.81
2018-06-27T08:43:21.231Z,64.48
2018-06-27T08:44:21.267Z,62.68
2018-06-27T08:45:21.287Z,62.08
2018-06-27T08:46:21.196Z,61.48
2018-06-27T08:47:21.190Z,61.48
2018-06-27T08:48:21.179Z,62.28
2018-06-27T08:49:21.166Z,61.08
2018-06-27T08:50:21.236Z,61.48
2018-06-27T08:51:21.159Z,61.38
2018-06-27T08:52:21.131Z,61.28
2018-06-27T08:53:21.125Z,61.38
2018-06-27T08:54:21.108Z,60.05
2018-06-27T08:55:21.168Z,59.75
2018-06-27T08:56:21.085Z,61.05
2018-06-27T08:57:21.075Z,60.55
2018-06-27T08:58:21.071Z,61.32
2018-06-27T08:59:21.057Z,59.82
2018-06-27T09:00:21.104Z,59.32
2018-06-27T09:01:21.034Z,58.52
2018-06-27T09:02:21.022Z,58.92
2018-06-27T09:03:21.016Z,58.00
2018-06-27T09:04:20.999Z,58.80
2018-06-27T09:05:21.050Z,59.19
2018-06-27T09:06:20.982Z,57.59
2018-06-27T09:07:20.977Z,57.89
2018-06-27T09:08:21.000Z,58.80
2018-06-27T09:09:20.944Z,58.62
2018-06-27T09:10:21.005Z,58.92
2018-06-27T09:11:20.920Z,59.69
2018-06-27T09:12:20.917Z,58.82
2018-06-27T09:13:20.903Z,58.89
2018-06-27T09:14:20.892Z,59.72
2018-06-27T09:15:20.950Z,59.59
2018-06-27T09:16:20.872Z,59.36
2018-06-27T09:17:20.857Z,58.47
2018-06-27T09:18:20.854Z,57.84
2018-06-27T09:19:20.839Z,57.04
2018-06-27T09:20:20.888Z,57.14
2018-06-27T09:21:20.819Z,56.84
2018-06-27T09:22:20.805Z,57.11
2018-06-27T09:23:20.792Z,55.81
2018-06-27T09:24:20.779Z,53.84
2018-06-27T09:25:20.851Z,54.84
2018-06-27T09:26:20.755Z,56.74
2018-06-27T09:27:20.749Z,55.84
2018-06-27T09:28:20.737Z,55.04
2018-06-27T09:29:20.724Z,55.54
2018-06-27T09:30:20.715Z,56.14
2018-06-27T09:31:20.805Z,55.32
2018-06-27T09:32:20.690Z,55.64
2018-06-27T09:33:20.685Z,55.71
2018-06-27T09:34:20.669Z,56.01
2018-06-27T09:35:20.659Z,57.41
2018-06-27T09:36:20.725Z,58.08
2018-06-27T09:37:20.650Z,57.39
2018-06-27T09:38:20.624Z,57.58
2018-06-27T09:39:20.622Z,55.36
2018-06-27T09:40:20.610Z,54.24
2018-06-27T09:41:20.657Z,54.66
2018-06-27T09:42:20.583Z,55.04
2018-06-27T09:43:20.581Z,55.04
2018-06-27T09:44:20.560Z,54.96
2018-06-27T09:45:20.561Z,55.66
2018-06-27T09:46:20.602Z,53.47
2018-06-27T09:47:20.563Z,52.64
2018-06-27T09:48:20.521Z,53.64
2018-06-27T09:49:20.511Z,52.94
2018-06-27T09:50:20.553Z,53.14
2018-06-27T09:51:20.544Z,51.54
2018-06-27T09:52:20.479Z,52.14
2018-06-27T09:53:20.466Z,52.32
2018-06-27T09:54:20.456Z,50.23
2018-06-27T09:55:20.459Z,50.32
2018-06-27T09:56:20.507Z,51.22
2018-06-27T09:57:20.440Z,51.54
2018-06-27T09:58:20.411Z,52.22
2018-06-27T09:59:20.401Z,52.42
2018-06-27T10:00:20.389Z,52.00
2018-06-27T10:01:20.445Z,52.00
2018-06-27T10:02:20.371Z,51.52
2018-06-27T10:03:20.361Z,51.00
2018-06-27T10:04:20.348Z,52.49
2018-06-27T10:05:20.344Z,51.59
2018-06-27T10:06:20.385Z,52.07
2018-06-27T10:07:20.322Z,51.87
2018-06-27T10:08:20.328Z,50.57
2018-06-27T10:09:20.291Z,51.27
2018-06-27T10:10:20.289Z,50.27
2018-06-27T10:11:20.342Z,50.90
2018-06-27T10:12:20.260Z,50.50
2018-06-27T10:13:20.245Z,50.87
2018-06-27T10:14:20.246Z,50.68
2018-06-27T10:15:20.227Z,49.28
2018-06-27T10:16:20.283Z,47.59
2018-06-27T10:17:20.255Z,47.99
2018-06-27T10:18:20.196Z,47.27
2018-06-27T10:19:20.180Z,47.59
2018-06-27T10:20:20.178Z,48.08
2018-06-27T10:21:20.225Z,47.49
2018-06-27T10:22:20.175Z,47.66
2018-06-27T10:23:20.141Z,48.66
2018-06-27T10:24:20.137Z,49.55
2018-06-27T10:25:20.117Z,48.54
2018-06-27T10:26:20.172Z,47.34
2018-06-27T10:27:20.103Z,47.54
2018-06-27T10:28:20.099Z,48.16
2018-06-27T10:29:20.080Z,47.34
2018-06-27T10:30:20.069Z,48.26
2018-06-27T10:31:20.116Z,48.26
2018-06-27T10:32:20.071Z,47.54
2018-06-27T10:33:20.034Z,47.82
2018-06-27T10:34:20.033Z,47.22
2018-06-27T10:35:20.012Z,47.92
2018-06-27T10:36:20.061Z,46.83
2018-06-27T10:37:20.005Z,47.52
2018-06-27T10:38:19.975Z,47.50
2018-06-27T10:39:19.969Z,47.20
2018-06-27T10:40:19.964Z,45.90
2018-06-27T10:41:20.014Z,46.19
2018-06-27T10:42:19.939Z,46.41
2018-06-27T10:43:19.928Z,46.70
2018-06-27T10:44:19.913Z,46.20
2018-06-27T10:45:19.940Z,46.83
2018-06-27T10:46:19.967Z,46.13
2018-06-27T10:47:19.879Z,46.13
2018-06-27T10:48:19.876Z,47.42
2018-06-27T10:49:19.863Z,46.11
2018-06-27T10:50:19.853Z,46.70
2018-06-27T10:51:19.908Z,47.89
2018-06-27T10:52:19.832Z,46.50
2018-06-27T10:53:19.816Z,46.01
2018-06-27T10:54:19.827Z,46.50
2018-06-27T10:55:19.800Z,47.08
2018-06-27T10:56:19.844Z,46.06
2018-06-27T10:57:19.776Z,46.08
2018-06-27T10:58:19.762Z,45.89
2018-06-27T10:59:19.750Z,46.19
2018-06-27T11:00:19.746Z,45.98
2018-06-27T11:01:19.796Z,46.48
2018-06-27T11:02:19.720Z,46.68
2018-06-27T11:03:19.716Z,45.76
2018-06-27T11:04:19.703Z,46.26
2018-06-27T11:05:19.759Z,45.54
2018-06-27T11:06:19.744Z,45.64
2018-06-27T11:07:19.666Z,45.74
2018-06-27T11:08:19.667Z,45.82
2018-06-27T11:09:19.645Z,43.96
2018-06-27T11:10:19.635Z,44.55
2018-06-27T11:11:19.617Z,45.74
2018-06-27T11:12:19.664Z,45.67
2018-06-27T11:13:19.598Z,44.77
2018-06-27T11:14:19.589Z,45.64
2018-06-27T11:15:19.578Z,45.45
2018-06-27T11:16:19.565Z,46.14
2018-06-27T11:17:19.630Z,46.64
2018-06-27T11:18:19.547Z,44.93
2018-06-27T11:19:19.541Z,45.42
2018-06-27T11:20:19.570Z,45.10
2018-06-27T11:21:19.512Z,45.42
2018-06-27T11:22:19.570Z,44.71
2018-06-27T11:23:19.496Z,44.63
2018-06-27T11:24:19.509Z,45.30
2018-06-27T11:25:19.474Z,47.09
2018-06-27T11:26:19.463Z,45.28
2018-06-27T11:27:19.519Z,44.27
2018-06-27T11:28:19.445Z,43.89
2018-06-27T11:29:19.440Z,43.38
2018-06-27T11:30:19.431Z,42.88
2018-06-27T11:31:19.430Z,41.71
2018-06-27T11:32:19.496Z,41.81
2018-06-27T11:33:19.405Z,43.00
2018-06-27T11:34:19.386Z,43.18
2018-06-27T11:35:19.376Z,45.06
2018-06-27T11:36:19.358Z,41.87
2018-06-27T11:37:19.411Z,41.36
2018-06-27T11:38:19.363Z,42.35
2018-06-27T11:39:19.329Z,42.88
2018-06-27T11:40:19.325Z,44.17
2018-06-27T11:41:19.309Z,44.17
2018-06-27T11:42:19.354Z,44.56
2018-06-27T11:43:19.343Z,43.46
2018-06-27T11:44:19.524Z,44.54
2018-06-27T11:45:19.269Z,42.09
2018-06-27T11:46:19.250Z,42.09
2018-06-27T11:47:19.307Z,41.87
2018-06-27T11:48:19.241Z,42.76
2018-06-27T11:49:19.222Z,42.76
2018-06-27T11:50:19.219Z,41.87
2018-06-27T11:51:19.205Z,41.39
2018-06-27T11:52:19.256Z,43.06
2018-06-27T11:53:19.241Z,43.83
2018-06-27T11:54:19.168Z,41.16
2018-06-27T11:55:19.161Z,41.16
2018-06-27T11:56:19.156Z,41.46
2018-06-27T11:57:19.197Z,40.96
2018-06-27T11:58:19.125Z,42.05
2018-06-27T11:59:19.122Z,42.03
2018-06-27T12:00:19.102Z,42.22
2018-06-27T12:01:19.124Z,41.53
2018-06-27T12:02:19.143Z,41.14
2018-06-27T12:03:19.077Z,42.35
2018-06-27T12:04:19.060Z,42.72
2018-06-27T12:05:19.051Z,41.46
2018-06-27T12:06:19.043Z,41.97
2018-06-27T12:07:19.105Z,42.78
2018-06-27T12:08:19.020Z,42.29
2018-06-27T12:09:19.008Z,43.35
2018-06-27T12:10:19.076Z,42.14
2018-06-27T12:11:18.989Z,41.18
2018-06-27T12:12:19.057Z,40.26
2018-06-27T12:13:18.967Z,41.38
2018-06-27T12:14:18.959Z,41.28
2018-06-27T12:15:18.947Z,41.65
2018-06-27T12:16:18.936Z,40.05
2018-06-27T12:17:18.985Z,40.53
2018-06-27T12:18:18.917Z,39.56
2018-06-27T12:19:18.902Z,39.24
2018-06-27T12:20:18.902Z,38.75
2018-06-27T12:21:18.888Z,38.53
2018-06-27T12:22:18.940Z,37.54
2018-06-27T12:23:18.861Z,38.63
2018-06-27T12:24:18.846Z,39.70
2018-06-27T12:25:18.840Z,40.07
2018-06-27T12:26:18.893Z,39.68
2018-06-27T12:27:18.879Z,39.48
2018-06-27T12:28:18.816Z,39.17
2018-06-27T12:29:18.794Z,39.00
2018-06-27T12:30:18.783Z,38.59
2018-06-27T12:31:18.779Z,38.59
2018-06-27T12:32:18.920Z,39.72
2018-06-27T12:33:18.752Z,39.73
2018-06-27T12:34:18.746Z,40.15
2018-06-27T12:35:18.749Z,40.55
2018-06-27T12:36:18.809Z,41.08
2018-06-27T12:37:18.778Z,41.30
2018-06-27T12:38:18.714Z,42.19
2018-06-27T12:39:18.690Z,41.81
2018-06-27T12:40:18.677Z,41.49
2018-06-27T12:41:18.664Z,41.49
2018-06-27T12:42:18.730Z,41.22
2018-06-27T12:43:18.646Z,41.61
2018-06-27T12:44:18.698Z,41.30
2018-06-27T12:45:18.634Z,40.23
2018-06-27T12:46:18.616Z,40.23
2018-06-27T12:47:18.667Z,41.41
2018-06-27T12:48:18.593Z,40.44
2018-06-27T12:49:18.593Z,40.74
2018-06-27T12:50:18.633Z,39.73
2018-06-27T12:51:18.565Z,39.61
2018-06-27T12:52:18.554Z,39.79